VGEG/CGP METAR and TAF weather

Enter ICAO airport designator
Station Type Date Time Source
VGEG METAR 2019/04/19 11:00 UTC NOAA

VGEG 191100Z 33008KT 5000 HZ FEW120 34/16 Q1006 NOSIG


Station Type Date Time Source
VGEG Decoded METAR 2019/04/19 11:00 UTC NOAA

Chittagong Patenga , Bangladesh (VGEG) 22-16N 091-49E 6M
Apr 19, 2019 - 07:00 AM EDT / 2019.04.19 1100 UTC
Wind: from the NNW (330 degrees) at 9 MPH (8 KT):0
Visibility: 3 mile(s):0
Sky conditions: mostly clear
Weather: haze
Temperature: 93 F (34 C)
Dew Point: 60 F (16 C)
Relative Humidity: 34%
Pressure (altimeter): 29.71 in. Hg (1006 hPa)
ob: VGEG 191100Z 33008KT 5000 HZ FEW120 34/16 Q1006 NOSIG
cycle: 11

Station Type Date Time Source
VGEG TAF 2019/04/19 12:42 UTC NOAA

TAF TAF VGEG 191100Z 1912/2018 32008KT 4000 HZ SCT016
TEMPO 1918/2003 00000KT 2000 BR SCT012
BECMG 2003/2005 16010KT 3500 HZ SCT013
BECMG 2011/2013 30008KT 4000 HZ SCT016

Example: see airport list